sensor_id;sensor_type;location;lat;lon;timestamp;P1;durP1;ratioP1;P2;durP2;ratioP2
20322;SDS011;10319;52.206;20.996;2023-12-07T00:00:46;17.83;;;5.60;;
20322;SDS011;10319;52.206;20.996;2023-12-07T00:03:11;21.20;;;7.07;;
20322;SDS011;10319;52.206;20.996;2023-12-07T00:05:36;20.70;;;6.20;;
20322;SDS011;10319;52.206;20.996;2023-12-07T00:08:01;21.07;;;7.43;;
20322;SDS011;10319;52.206;20.996;2023-12-07T00:10:27;20.00;;;7.10;;
20322;SDS011;10319;52.206;20.996;2023-12-07T00:12:52;20.20;;;6.23;;
20322;SDS011;10319;52.206;20.996;2023-12-07T00:15:17;20.97;;;6.70;;
20322;SDS011;10319;52.206;20.996;2023-12-07T00:17:42;17.00;;;5.47;;
20322;SDS011;10319;52.206;20.996;2023-12-07T00:20:08;17.97;;;5.57;;
20322;SDS011;10319;52.206;20.996;2023-12-07T00:22:33;19.10;;;6.60;;
20322;SDS011;10319;52.206;20.996;2023-12-07T00:24:58;20.77;;;6.30;;
20322;SDS011;10319;52.206;20.996;2023-12-07T00:27:24;20.70;;;6.00;;
20322;SDS011;10319;52.206;20.996;2023-12-07T00:29:49;19.30;;;5.77;;
20322;SDS011;10319;52.206;20.996;2023-12-07T00:32:14;20.30;;;6.53;;
20322;SDS011;10319;52.206;20.996;2023-12-07T00:34:39;20.97;;;6.60;;
20322;SDS011;10319;52.206;20.996;2023-12-07T00:37:05;21.37;;;6.63;;
20322;SDS011;10319;52.206;20.996;2023-12-07T00:39:30;21.90;;;6.80;;
20322;SDS011;10319;52.206;20.996;2023-12-07T00:41:55;19.27;;;5.90;;
20322;SDS011;10319;52.206;20.996;2023-12-07T00:44:20;16.70;;;5.30;;
20322;SDS011;10319;52.206;20.996;2023-12-07T00:46:46;18.13;;;5.57;;
20322;SDS011;10319;52.206;20.996;2023-12-07T00:49:11;20.00;;;6.50;;
20322;SDS011;10319;52.206;20.996;2023-12-07T00:51:37;19.33;;;6.33;;
20322;SDS011;10319;52.206;20.996;2023-12-07T00:54:02;17.93;;;5.27;;
20322;SDS011;10319;52.206;20.996;2023-12-07T00:56:28;19.03;;;6.00;;
20322;SDS011;10319;52.206;20.996;2023-12-07T00:58:53;21.03;;;6.57;;
20322;SDS011;10319;52.206;20.996;2023-12-07T01:01:18;17.97;;;5.43;;
20322;SDS011;10319;52.206;20.996;2023-12-07T01:03:43;20.60;;;6.40;;
20322;SDS011;10319;52.206;20.996;2023-12-07T01:06:09;19.57;;;5.30;;
20322;SDS011;10319;52.206;20.996;2023-12-07T01:08:36;20.07;;;5.47;;
20322;SDS011;10319;52.206;20.996;2023-12-07T01:11:01;18.63;;;5.57;;
20322;SDS011;10319;52.206;20.996;2023-12-07T01:13:27;18.60;;;5.40;;
20322;SDS011;10319;52.206;20.996;2023-12-07T01:15:52;18.80;;;5.70;;
20322;SDS011;10319;52.206;20.996;2023-12-07T01:18:17;18.53;;;4.87;;
20322;SDS011;10319;52.206;20.996;2023-12-07T01:20:42;19.77;;;6.17;;
20322;SDS011;10319;52.206;20.996;2023-12-07T01:23:07;22.43;;;6.37;;
20322;SDS011;10319;52.206;20.996;2023-12-07T01:25:36;20.90;;;6.40;;
20322;SDS011;10319;52.206;20.996;2023-12-07T01:28:01;19.63;;;5.87;;
20322;SDS011;10319;52.206;20.996;2023-12-07T01:30:26;21.77;;;6.40;;
20322;SDS011;10319;52.206;20.996;2023-12-07T01:32:52;17.80;;;5.60;;
20322;SDS011;10319;52.206;20.996;2023-12-07T01:35:17;19.67;;;5.67;;
20322;SDS011;10319;52.206;20.996;2023-12-07T01:37:42;19.37;;;6.03;;
20322;SDS011;10319;52.206;20.996;2023-12-07T01:40:07;17.93;;;4.97;;
20322;SDS011;10319;52.206;20.996;2023-12-07T01:42:35;17.13;;;5.27;;
20322;SDS011;10319;52.206;20.996;2023-12-07T01:45:00;20.27;;;5.57;;
20322;SDS011;10319;52.206;20.996;2023-12-07T01:47:26;17.10;;;4.57;;
20322;SDS011;10319;52.206;20.996;2023-12-07T01:49:51;20.83;;;6.17;;
20322;SDS011;10319;52.206;20.996;2023-12-07T01:52:17;19.60;;;6.03;;
20322;SDS011;10319;52.206;20.996;2023-12-07T01:54:42;18.53;;;5.70;;
20322;SDS011;10319;52.206;20.996;2023-12-07T01:57:07;19.37;;;5.67;;
20322;SDS011;10319;52.206;20.996;2023-12-07T01:59:33;20.67;;;5.57;;
20322;SDS011;10319;52.206;20.996;2023-12-07T02:01:58;19.60;;;5.90;;
20322;SDS011;10319;52.206;20.996;2023-12-07T02:04:23;21.97;;;6.33;;
20322;SDS011;10319;52.206;20.996;2023-12-07T02:06:49;21.47;;;6.63;;
20322;SDS011;10319;52.206;20.996;2023-12-07T02:09:14;19.70;;;6.33;;
20322;SDS011;10319;52.206;20.996;2023-12-07T02:11:40;21.07;;;6.17;;
20322;SDS011;10319;52.206;20.996;2023-12-07T02:14:05;22.97;;;6.60;;
20322;SDS011;10319;52.206;20.996;2023-12-07T02:16:31;21.10;;;6.30;;
20322;SDS011;10319;52.206;20.996;2023-12-07T02:21:47;23.03;;;6.47;;
20322;SDS011;10319;52.206;20.996;2023-12-07T02:24:13;20.87;;;6.23;;
20322;SDS011;10319;52.206;20.996;2023-12-07T02:26:41;20.80;;;6.23;;
20322;SDS011;10319;52.206;20.996;2023-12-07T02:29:07;19.27;;;5.43;;
20322;SDS011;10319;52.206;20.996;2023-12-07T02:31:32;19.93;;;5.47;;
20322;SDS011;10319;52.206;20.996;2023-12-07T02:33:58;19.20;;;5.40;;
20322;SDS011;10319;52.206;20.996;2023-12-07T02:36:24;20.93;;;5.40;;
20322;SDS011;10319;52.206;20.996;2023-12-07T02:38:50;16.73;;;4.73;;
20322;SDS011;10319;52.206;20.996;2023-12-07T02:41:15;20.17;;;5.60;;
20322;SDS011;10319;52.206;20.996;2023-12-07T02:43:41;21.37;;;5.17;;
20322;SDS011;10319;52.206;20.996;2023-12-07T02:46:06;19.60;;;5.73;;
20322;SDS011;10319;52.206;20.996;2023-12-07T02:48:32;18.60;;;5.50;;
20322;SDS011;10319;52.206;20.996;2023-12-07T02:50:57;18.57;;;5.40;;
20322;SDS011;10319;52.206;20.996;2023-12-07T02:53:22;19.33;;;5.20;;
20322;SDS011;10319;52.206;20.996;2023-12-07T02:55:47;21.83;;;5.97;;
20322;SDS011;10319;52.206;20.996;2023-12-07T02:58:13;16.73;;;4.47;;
20322;SDS011;10319;52.206;20.996;2023-12-07T03:00:38;23.57;;;6.63;;
20322;SDS011;10319;52.206;20.996;2023-12-07T03:03:03;16.97;;;4.63;;
20322;SDS011;10319;52.206;20.996;2023-12-07T03:05:28;17.57;;;5.00;;
20322;SDS011;10319;52.206;20.996;2023-12-07T03:07:54;17.57;;;4.90;;
20322;SDS011;10319;52.206;20.996;2023-12-07T03:10:19;18.40;;;5.20;;
20322;SDS011;10319;52.206;20.996;2023-12-07T03:12:44;16.70;;;4.53;;
20322;SDS011;10319;52.206;20.996;2023-12-07T03:15:09;17.57;;;4.73;;
20322;SDS011;10319;52.206;20.996;2023-12-07T03:17:35;15.17;;;3.80;;
20322;SDS011;10319;52.206;20.996;2023-12-07T03:20:00;17.07;;;4.33;;
20322;SDS011;10319;52.206;20.996;2023-12-07T03:22:25;18.07;;;4.80;;
20322;SDS011;10319;52.206;20.996;2023-12-07T03:24:51;19.33;;;5.17;;
20322;SDS011;10319;52.206;20.996;2023-12-07T03:27:17;17.43;;;4.60;;
20322;SDS011;10319;52.206;20.996;2023-12-07T03:29:42;19.87;;;4.77;;
20322;SDS011;10319;52.206;20.996;2023-12-07T03:32:07;17.33;;;4.53;;
20322;SDS011;10319;52.206;20.996;2023-12-07T03:34:32;17.67;;;4.80;;
20322;SDS011;10319;52.206;20.996;2023-12-07T03:36:57;17.40;;;4.70;;
20322;SDS011;10319;52.206;20.996;2023-12-07T03:39:23;16.60;;;4.10;;
20322;SDS011;10319;52.206;20.996;2023-12-07T03:41:49;18.23;;;5.07;;
20322;SDS011;10319;52.206;20.996;2023-12-07T03:44:15;16.50;;;4.70;;
20322;SDS011;10319;52.206;20.996;2023-12-07T03:46:40;14.87;;;3.67;;
20322;SDS011;10319;52.206;20.996;2023-12-07T03:49:06;16.50;;;3.90;;
20322;SDS011;10319;52.206;20.996;2023-12-07T03:51:31;15.93;;;3.90;;
20322;SDS011;10319;52.206;20.996;2023-12-07T03:53:56;16.00;;;4.10;;
20322;SDS011;10319;52.206;20.996;2023-12-07T03:56:25;17.57;;;4.97;;
20322;SDS011;10319;52.206;20.996;2023-12-07T03:58:51;14.73;;;4.13;;
20322;SDS011;10319;52.206;20.996;2023-12-07T04:01:16;15.23;;;4.43;;
20322;SDS011;10319;52.206;20.996;2023-12-07T04:03:41;16.13;;;4.60;;
20322;SDS011;10319;52.206;20.996;2023-12-07T04:06:07;15.87;;;4.07;;
20322;SDS011;10319;52.206;20.996;2023-12-07T04:08:32;17.70;;;5.50;;
20322;SDS011;10319;52.206;20.996;2023-12-07T04:10:58;17.33;;;5.13;;
20322;SDS011;10319;52.206;20.996;2023-12-07T04:13:23;18.00;;;4.93;;
20322;SDS011;10319;52.206;20.996;2023-12-07T04:15:48;16.23;;;4.33;;
20322;SDS011;10319;52.206;20.996;2023-12-07T04:18:13;15.30;;;4.53;;
20322;SDS011;10319;52.206;20.996;2023-12-07T04:20:39;17.43;;;4.50;;
20322;SDS011;10319;52.206;20.996;2023-12-07T04:23:04;17.60;;;4.77;;
20322;SDS011;10319;52.206;20.996;2023-12-07T04:25:29;18.53;;;4.87;;
20322;SDS011;10319;52.206;20.996;2023-12-07T04:27:54;15.20;;;4.13;;
20322;SDS011;10319;52.206;20.996;2023-12-07T04:30:19;18.47;;;4.80;;
20322;SDS011;10319;52.206;20.996;2023-12-07T04:32:45;13.87;;;3.53;;
20322;SDS011;10319;52.206;20.996;2023-12-07T04:35:10;15.47;;;4.47;;
20322;SDS011;10319;52.206;20.996;2023-12-07T04:37:35;17.17;;;4.90;;
20322;SDS011;10319;52.206;20.996;2023-12-07T04:40:00;15.93;;;4.33;;
20322;SDS011;10319;52.206;20.996;2023-12-07T04:42:26;16.97;;;4.47;;
20322;SDS011;10319;52.206;20.996;2023-12-07T04:44:51;15.17;;;4.40;;
20322;SDS011;10319;52.206;20.996;2023-12-07T04:47:16;16.57;;;4.27;;
20322;SDS011;10319;52.206;20.996;2023-12-07T04:49:42;13.90;;;3.60;;
20322;SDS011;10319;52.206;20.996;2023-12-07T04:52:07;15.83;;;4.00;;
20322;SDS011;10319;52.206;20.996;2023-12-07T04:54:33;14.90;;;3.73;;
20322;SDS011;10319;52.206;20.996;2023-12-07T04:56:58;16.23;;;4.20;;
20322;SDS011;10319;52.206;20.996;2023-12-07T04:59:23;15.70;;;3.90;;
20322;SDS011;10319;52.206;20.996;2023-12-07T05:01:48;16.13;;;3.90;;
20322;SDS011;10319;52.206;20.996;2023-12-07T05:04:14;15.33;;;4.13;;
20322;SDS011;10319;52.206;20.996;2023-12-07T05:06:39;14.67;;;3.80;;
20322;SDS011;10319;52.206;20.996;2023-12-07T05:09:04;14.87;;;3.90;;
20322;SDS011;10319;52.206;20.996;2023-12-07T05:11:30;15.20;;;4.30;;
20322;SDS011;10319;52.206;20.996;2023-12-07T05:13:55;16.27;;;3.93;;
20322;SDS011;10319;52.206;20.996;2023-12-07T05:16:20;15.27;;;4.03;;
20322;SDS011;10319;52.206;20.996;2023-12-07T05:18:45;14.70;;;3.80;;
20322;SDS011;10319;52.206;20.996;2023-12-07T05:21:11;13.70;;;3.40;;
20322;SDS011;10319;52.206;20.996;2023-12-07T05:23:36;16.20;;;4.20;;
20322;SDS011;10319;52.206;20.996;2023-12-07T05:26:01;14.70;;;4.13;;
20322;SDS011;10319;52.206;20.996;2023-12-07T05:28:26;15.30;;;4.20;;
20322;SDS011;10319;52.206;20.996;2023-12-07T05:30:52;14.57;;;4.00;;
20322;SDS011;10319;52.206;20.996;2023-12-07T05:33:18;16.77;;;4.27;;
20322;SDS011;10319;52.206;20.996;2023-12-07T05:35:44;15.07;;;4.50;;
20322;SDS011;10319;52.206;20.996;2023-12-07T05:38:09;14.30;;;3.87;;
20322;SDS011;10319;52.206;20.996;2023-12-07T05:40:34;16.70;;;4.37;;
20322;SDS011;10319;52.206;20.996;2023-12-07T05:43:00;16.93;;;4.50;;
20322;SDS011;10319;52.206;20.996;2023-12-07T05:45:25;14.87;;;4.07;;
20322;SDS011;10319;52.206;20.996;2023-12-07T05:47:51;13.73;;;3.63;;
20322;SDS011;10319;52.206;20.996;2023-12-07T05:50:16;14.37;;;3.93;;
20322;SDS011;10319;52.206;20.996;2023-12-07T05:52:41;12.67;;;3.17;;
20322;SDS011;10319;52.206;20.996;2023-12-07T05:55:07;14.80;;;3.60;;
20322;SDS011;10319;52.206;20.996;2023-12-07T05:57:32;14.37;;;3.60;;
20322;SDS011;10319;52.206;20.996;2023-12-07T05:59:57;14.33;;;3.73;;
20322;SDS011;10319;52.206;20.996;2023-12-07T06:02:23;13.60;;;3.10;;
20322;SDS011;10319;52.206;20.996;2023-12-07T06:04:48;14.23;;;3.80;;
20322;SDS011;10319;52.206;20.996;2023-12-07T06:07:13;14.10;;;3.57;;
20322;SDS011;10319;52.206;20.996;2023-12-07T06:09:38;16.13;;;4.00;;
20322;SDS011;10319;52.206;20.996;2023-12-07T06:12:03;11.70;;;3.07;;
20322;SDS011;10319;52.206;20.996;2023-12-07T06:14:29;13.73;;;3.93;;
20322;SDS011;10319;52.206;20.996;2023-12-07T06:16:54;14.47;;;4.00;;
20322;SDS011;10319;52.206;20.996;2023-12-07T06:19:20;14.10;;;4.00;;
20322;SDS011;10319;52.206;20.996;2023-12-07T06:21:45;15.57;;;4.30;;
20322;SDS011;10319;52.206;20.996;2023-12-07T06:24:10;14.37;;;3.63;;
20322;SDS011;10319;52.206;20.996;2023-12-07T06:26:35;15.93;;;4.13;;
20322;SDS011;10319;52.206;20.996;2023-12-07T06:29:01;15.13;;;4.10;;
20322;SDS011;10319;52.206;20.996;2023-12-07T06:31:27;15.87;;;4.40;;
20322;SDS011;10319;52.206;20.996;2023-12-07T06:33:52;15.50;;;4.43;;
20322;SDS011;10319;52.206;20.996;2023-12-07T06:36:18;15.27;;;4.07;;
20322;SDS011;10319;52.206;20.996;2023-12-07T06:38:43;13.80;;;3.90;;
20322;SDS011;10319;52.206;20.996;2023-12-07T06:41:08;13.17;;;3.47;;
20322;SDS011;10319;52.206;20.996;2023-12-07T06:43:35;13.53;;;3.77;;
20322;SDS011;10319;52.206;20.996;2023-12-07T06:46:00;15.20;;;3.60;;
20322;SDS011;10319;52.206;20.996;2023-12-07T06:48:25;12.73;;;3.50;;
20322;SDS011;10319;52.206;20.996;2023-12-07T06:50:50;13.03;;;3.27;;
20322;SDS011;10319;52.206;20.996;2023-12-07T06:53:16;13.80;;;3.77;;
20322;SDS011;10319;52.206;20.996;2023-12-07T06:55:43;14.20;;;3.80;;
20322;SDS011;10319;52.206;20.996;2023-12-07T06:58:08;12.77;;;3.70;;
20322;SDS011;10319;52.206;20.996;2023-12-07T07:00:34;13.93;;;3.50;;
20322;SDS011;10319;52.206;20.996;2023-12-07T07:03:01;13.13;;;3.40;;
20322;SDS011;10319;52.206;20.996;2023-12-07T07:05:26;13.93;;;3.60;;
20322;SDS011;10319;52.206;20.996;2023-12-07T07:07:52;14.37;;;4.03;;
20322;SDS011;10319;52.206;20.996;2023-12-07T07:10:17;14.17;;;3.40;;
20322;SDS011;10319;52.206;20.996;2023-12-07T07:12:42;13.07;;;3.83;;
20322;SDS011;10319;52.206;20.996;2023-12-07T07:15:08;13.50;;;3.90;;
20322;SDS011;10319;52.206;20.996;2023-12-07T07:17:33;14.43;;;3.83;;
20322;SDS011;10319;52.206;20.996;2023-12-07T07:19:58;13.83;;;3.70;;
20322;SDS011;10319;52.206;20.996;2023-12-07T07:22:23;13.53;;;3.47;;
20322;SDS011;10319;52.206;20.996;2023-12-07T07:24:49;13.07;;;3.53;;
20322;SDS011;10319;52.206;20.996;2023-12-07T07:27:14;12.27;;;3.40;;
20322;SDS011;10319;52.206;20.996;2023-12-07T07:29:39;15.47;;;3.77;;
20322;SDS011;10319;52.206;20.996;2023-12-07T07:32:04;15.93;;;4.27;;
20322;SDS011;10319;52.206;20.996;2023-12-07T07:34:30;14.27;;;4.30;;
20322;SDS011;10319;52.206;20.996;2023-12-07T07:36:56;13.03;;;3.37;;
20322;SDS011;10319;52.206;20.996;2023-12-07T07:39:21;11.60;;;3.03;;
20322;SDS011;10319;52.206;20.996;2023-12-07T07:41:46;13.57;;;3.80;;
20322;SDS011;10319;52.206;20.996;2023-12-07T07:44:12;13.27;;;3.33;;
20322;SDS011;10319;52.206;20.996;2023-12-07T07:46:37;15.33;;;4.00;;
20322;SDS011;10319;52.206;20.996;2023-12-07T07:49:02;14.47;;;3.80;;
20322;SDS011;10319;52.206;20.996;2023-12-07T07:51:29;12.43;;;3.53;;
20322;SDS011;10319;52.206;20.996;2023-12-07T07:53:54;13.27;;;3.50;;
20322;SDS011;10319;52.206;20.996;2023-12-07T07:56:19;13.47;;;3.50;;
20322;SDS011;10319;52.206;20.996;2023-12-07T07:58:44;13.90;;;3.97;;
20322;SDS011;10319;52.206;20.996;2023-12-07T08:01:10;14.40;;;3.87;;
20322;SDS011;10319;52.206;20.996;2023-12-07T08:03:35;15.90;;;4.37;;
20322;SDS011;10319;52.206;20.996;2023-12-07T08:06:00;15.73;;;4.57;;
20322;SDS011;10319;52.206;20.996;2023-12-07T08:08:25;15.63;;;4.10;;
20322;SDS011;10319;52.206;20.996;2023-12-07T08:10:51;14.60;;;4.27;;
20322;SDS011;10319;52.206;20.996;2023-12-07T08:13:16;14.87;;;4.23;;
20322;SDS011;10319;52.206;20.996;2023-12-07T08:15:42;14.83;;;4.40;;
20322;SDS011;10319;52.206;20.996;2023-12-07T08:18:07;14.33;;;4.47;;
20322;SDS011;10319;52.206;20.996;2023-12-07T08:20:32;14.53;;;4.30;;
20322;SDS011;10319;52.206;20.996;2023-12-07T08:22:58;13.57;;;3.40;;
20322;SDS011;10319;52.206;20.996;2023-12-07T08:25:23;13.43;;;3.87;;
20322;SDS011;10319;52.206;20.996;2023-12-07T08:27:48;13.57;;;3.73;;
20322;SDS011;10319;52.206;20.996;2023-12-07T08:30:13;13.27;;;3.53;;
20322;SDS011;10319;52.206;20.996;2023-12-07T08:32:39;12.67;;;3.27;;
20322;SDS011;10319;52.206;20.996;2023-12-07T08:35:04;13.27;;;3.53;;
20322;SDS011;10319;52.206;20.996;2023-12-07T08:37:31;13.80;;;3.57;;
20322;SDS011;10319;52.206;20.996;2023-12-07T08:39:56;14.00;;;4.10;;
20322;SDS011;10319;52.206;20.996;2023-12-07T08:42:21;14.90;;;4.20;;
20322;SDS011;10319;52.206;20.996;2023-12-07T08:44:46;14.90;;;4.63;;
20322;SDS011;10319;52.206;20.996;2023-12-07T08:47:12;15.93;;;5.00;;
20322;SDS011;10319;52.206;20.996;2023-12-07T08:49:37;15.30;;;4.50;;
20322;SDS011;10319;52.206;20.996;2023-12-07T08:52:02;14.40;;;4.30;;
20322;SDS011;10319;52.206;20.996;2023-12-07T08:54:28;13.20;;;3.83;;
20322;SDS011;10319;52.206;20.996;2023-12-07T08:56:53;13.30;;;3.97;;
20322;SDS011;10319;52.206;20.996;2023-12-07T08:59:18;14.37;;;4.13;;
20322;SDS011;10319;52.206;20.996;2023-12-07T09:01:43;15.70;;;4.70;;
20322;SDS011;10319;52.206;20.996;2023-12-07T09:04:09;13.87;;;4.40;;
20322;SDS011;10319;52.206;20.996;2023-12-07T09:06:35;14.93;;;4.50;;
20322;SDS011;10319;52.206;20.996;2023-12-07T09:09:00;15.20;;;4.20;;
20322;SDS011;10319;52.206;20.996;2023-12-07T09:11:27;16.77;;;4.87;;
20322;SDS011;10319;52.206;20.996;2023-12-07T09:13:52;17.80;;;5.87;;
20322;SDS011;10319;52.206;20.996;2023-12-07T09:16:17;17.87;;;5.90;;
20322;SDS011;10319;52.206;20.996;2023-12-07T09:18:43;15.93;;;4.80;;
20322;SDS011;10319;52.206;20.996;2023-12-07T09:21:10;15.83;;;4.67;;
20322;SDS011;10319;52.206;20.996;2023-12-07T09:23:35;15.80;;;4.80;;
20322;SDS011;10319;52.206;20.996;2023-12-07T09:26:02;15.83;;;4.40;;
20322;SDS011;10319;52.206;20.996;2023-12-07T09:28:28;15.47;;;4.87;;
20322;SDS011;10319;52.206;20.996;2023-12-07T09:30:53;17.63;;;5.20;;
20322;SDS011;10319;52.206;20.996;2023-12-07T09:33:19;17.93;;;5.33;;
20322;SDS011;10319;52.206;20.996;2023-12-07T09:35:44;17.00;;;5.30;;
20322;SDS011;10319;52.206;20.996;2023-12-07T09:38:10;15.63;;;5.00;;
20322;SDS011;10319;52.206;20.996;2023-12-07T09:40:35;15.80;;;4.83;;
20322;SDS011;10319;52.206;20.996;2023-12-07T09:43:00;14.97;;;4.37;;
20322;SDS011;10319;52.206;20.996;2023-12-07T09:45:25;14.97;;;4.70;;
20322;SDS011;10319;52.206;20.996;2023-12-07T09:47:51;17.23;;;5.77;;
20322;SDS011;10319;52.206;20.996;2023-12-07T09:50:17;21.60;;;7.17;;
20322;SDS011;10319;52.206;20.996;2023-12-07T09:52:43;23.27;;;7.27;;
20322;SDS011;10319;52.206;20.996;2023-12-07T09:55:08;18.37;;;6.17;;
20322;SDS011;10319;52.206;20.996;2023-12-07T09:57:35;16.13;;;5.50;;
20322;SDS011;10319;52.206;20.996;2023-12-07T10:00:01;19.63;;;6.97;;
20322;SDS011;10319;52.206;20.996;2023-12-07T10:02:27;21.90;;;8.27;;
20322;SDS011;10319;52.206;20.996;2023-12-07T10:05:05;25.57;;;9.13;;
20322;SDS011;10319;52.206;20.996;2023-12-07T10:07:34;21.03;;;7.87;;
20322;SDS011;10319;52.206;20.996;2023-12-07T10:10:05;20.37;;;6.80;;
20322;SDS011;10319;52.206;20.996;2023-12-07T10:12:31;17.13;;;5.67;;
20322;SDS011;10319;52.206;20.996;2023-12-07T10:14:58;17.43;;;5.50;;
20322;SDS011;10319;52.206;20.996;2023-12-07T10:17:24;17.00;;;5.40;;
20322;SDS011;10319;52.206;20.996;2023-12-07T10:20:10;16.97;;;5.50;;
20322;SDS011;10319;52.206;20.996;2023-12-07T10:22:38;17.50;;;5.77;;
20322;SDS011;10319;52.206;20.996;2023-12-07T10:25:03;19.67;;;7.00;;
20322;SDS011;10319;52.206;20.996;2023-12-07T10:27:34;18.50;;;6.90;;
20322;SDS011;10319;52.206;20.996;2023-12-07T10:30:00;20.10;;;7.13;;
20322;SDS011;10319;52.206;20.996;2023-12-07T10:32:25;18.83;;;6.10;;
20322;SDS011;10319;52.206;20.996;2023-12-07T10:34:51;17.80;;;5.90;;
20322;SDS011;10319;52.206;20.996;2023-12-07T10:37:16;20.13;;;6.57;;
20322;SDS011;10319;52.206;20.996;2023-12-07T10:39:42;20.30;;;6.93;;
20322;SDS011;10319;52.206;20.996;2023-12-07T10:42:08;17.67;;;6.60;;
20322;SDS011;10319;52.206;20.996;2023-12-07T10:44:34;17.30;;;5.73;;
20322;SDS011;10319;52.206;20.996;2023-12-07T10:47:01;17.83;;;5.77;;
20322;SDS011;10319;52.206;20.996;2023-12-07T10:49:27;18.93;;;6.50;;
20322;SDS011;10319;52.206;20.996;2023-12-07T10:52:03;15.67;;;5.00;;
20322;SDS011;10319;52.206;20.996;2023-12-07T10:54:47;16.60;;;5.33;;
20322;SDS011;10319;52.206;20.996;2023-12-07T10:57:15;16.67;;;5.30;;
20322;SDS011;10319;52.206;20.996;2023-12-07T10:59:41;17.00;;;5.73;;
20322;SDS011;10319;52.206;20.996;2023-12-07T11:02:08;15.20;;;4.87;;
20322;SDS011;10319;52.206;20.996;2023-12-07T11:04:33;15.67;;;5.03;;
20322;SDS011;10319;52.206;20.996;2023-12-07T11:07:02;16.87;;;5.80;;
20322;SDS011;10319;52.206;20.996;2023-12-07T11:09:31;17.40;;;5.53;;
20322;SDS011;10319;52.206;20.996;2023-12-07T11:14:55;18.43;;;6.80;;
20322;SDS011;10319;52.206;20.996;2023-12-07T11:17:20;19.90;;;6.50;;
20322;SDS011;10319;52.206;20.996;2023-12-07T11:19:47;27.00;;;10.87;;
20322;SDS011;10319;52.206;20.996;2023-12-07T11:22:12;22.87;;;8.87;;
20322;SDS011;10319;52.206;20.996;2023-12-07T11:24:38;22.40;;;8.53;;
20322;SDS011;10319;52.206;20.996;2023-12-07T11:27:16;19.80;;;7.07;;
20322;SDS011;10319;52.206;20.996;2023-12-07T11:29:41;20.27;;;6.87;;
20322;SDS011;10319;52.206;20.996;2023-12-07T11:32:06;18.87;;;6.77;;
20322;SDS011;10319;52.206;20.996;2023-12-07T11:34:35;18.03;;;6.10;;
20322;SDS011;10319;52.206;20.996;2023-12-07T11:37:01;17.70;;;5.87;;
20322;SDS011;10319;52.206;20.996;2023-12-07T11:39:27;17.73;;;5.87;;
20322;SDS011;10319;52.206;20.996;2023-12-07T11:41:54;19.77;;;7.13;;
20322;SDS011;10319;52.206;20.996;2023-12-07T11:44:23;20.17;;;7.80;;
20322;SDS011;10319;52.206;20.996;2023-12-07T11:46:49;20.53;;;8.00;;
20322;SDS011;10319;52.206;20.996;2023-12-07T11:49:14;18.40;;;6.93;;
20322;SDS011;10319;52.206;20.996;2023-12-07T11:51:39;20.30;;;7.00;;
20322;SDS011;10319;52.206;20.996;2023-12-07T11:54:05;19.20;;;7.37;;
20322;SDS011;10319;52.206;20.996;2023-12-07T11:56:30;21.60;;;8.40;;
20322;SDS011;10319;52.206;20.996;2023-12-07T11:58:56;19.03;;;7.23;;
20322;SDS011;10319;52.206;20.996;2023-12-07T12:01:21;18.73;;;6.27;;
20322;SDS011;10319;52.206;20.996;2023-12-07T12:03:47;19.67;;;7.50;;
20322;SDS011;10319;52.206;20.996;2023-12-07T12:06:12;21.47;;;7.77;;
20322;SDS011;10319;52.206;20.996;2023-12-07T12:08:39;20.73;;;7.60;;
20322;SDS011;10319;52.206;20.996;2023-12-07T12:11:04;19.97;;;7.13;;
20322;SDS011;10319;52.206;20.996;2023-12-07T12:13:31;20.03;;;7.50;;
20322;SDS011;10319;52.206;20.996;2023-12-07T12:15:56;19.83;;;7.23;;
20322;SDS011;10319;52.206;20.996;2023-12-07T12:18:21;20.13;;;7.43;;
20322;SDS011;10319;52.206;20.996;2023-12-07T12:20:47;19.63;;;7.83;;
20322;SDS011;10319;52.206;20.996;2023-12-07T12:23:12;25.83;;;9.83;;
20322;SDS011;10319;52.206;20.996;2023-12-07T12:25:37;27.17;;;11.20;;
20322;SDS011;10319;52.206;20.996;2023-12-07T12:28:03;25.60;;;10.63;;
20322;SDS011;10319;52.206;20.996;2023-12-07T12:30:29;22.30;;;9.13;;
20322;SDS011;10319;52.206;20.996;2023-12-07T12:32:55;23.00;;;9.33;;
20322;SDS011;10319;52.206;20.996;2023-12-07T12:35:20;24.60;;;9.27;;
20322;SDS011;10319;52.206;20.996;2023-12-07T12:37:46;26.27;;;10.47;;
20322;SDS011;10319;52.206;20.996;2023-12-07T12:40:12;26.47;;;10.77;;
20322;SDS011;10319;52.206;20.996;2023-12-07T12:42:40;21.90;;;8.97;;
20322;SDS011;10319;52.206;20.996;2023-12-07T12:45:10;25.57;;;10.17;;
20322;SDS011;10319;52.206;20.996;2023-12-07T12:47:38;20.90;;;8.07;;
20322;SDS011;10319;52.206;20.996;2023-12-07T12:50:05;24.20;;;8.97;;
20322;SDS011;10319;52.206;20.996;2023-12-07T12:52:30;24.47;;;9.40;;
20322;SDS011;10319;52.206;20.996;2023-12-07T12:54:56;25.03;;;10.20;;
20322;SDS011;10319;52.206;20.996;2023-12-07T12:57:21;23.50;;;9.77;;
20322;SDS011;10319;52.206;20.996;2023-12-07T12:59:47;21.67;;;8.83;;
20322;SDS011;10319;52.206;20.996;2023-12-07T13:02:13;21.53;;;8.30;;
20322;SDS011;10319;52.206;20.996;2023-12-07T13:04:38;23.63;;;9.33;;
20322;SDS011;10319;52.206;20.996;2023-12-07T13:07:04;21.33;;;8.27;;
20322;SDS011;10319;52.206;20.996;2023-12-07T13:09:29;21.17;;;7.90;;
20322;SDS011;10319;52.206;20.996;2023-12-07T13:11:54;20.43;;;7.80;;
20322;SDS011;10319;52.206;20.996;2023-12-07T13:14:20;22.43;;;8.03;;
20322;SDS011;10319;52.206;20.996;2023-12-07T13:16:45;25.33;;;8.93;;
20322;SDS011;10319;52.206;20.996;2023-12-07T13:19:10;29.47;;;11.00;;
20322;SDS011;10319;52.206;20.996;2023-12-07T13:21:35;25.40;;;10.27;;
20322;SDS011;10319;52.206;20.996;2023-12-07T13:24:01;22.83;;;9.93;;
20322;SDS011;10319;52.206;20.996;2023-12-07T13:26:29;24.80;;;10.07;;
20322;SDS011;10319;52.206;20.996;2023-12-07T13:28:54;24.87;;;9.97;;
20322;SDS011;10319;52.206;20.996;2023-12-07T13:31:20;22.07;;;9.13;;
20322;SDS011;10319;52.206;20.996;2023-12-07T13:33:46;19.70;;;8.07;;
20322;SDS011;10319;52.206;20.996;2023-12-07T13:36:11;21.40;;;7.80;;
20322;SDS011;10319;52.206;20.996;2023-12-07T13:38:36;19.80;;;7.00;;
20322;SDS011;10319;52.206;20.996;2023-12-07T13:41:01;21.60;;;7.67;;
20322;SDS011;10319;52.206;20.996;2023-12-07T13:43:27;20.57;;;7.73;;
20322;SDS011;10319;52.206;20.996;2023-12-07T13:45:52;27.20;;;10.70;;
20322;SDS011;10319;52.206;20.996;2023-12-07T13:48:18;28.13;;;10.97;;
20322;SDS011;10319;52.206;20.996;2023-12-07T13:50:43;28.13;;;11.63;;
20322;SDS011;10319;52.206;20.996;2023-12-07T13:53:08;27.13;;;11.00;;
20322;SDS011;10319;52.206;20.996;2023-12-07T13:55:37;31.33;;;12.30;;
20322;SDS011;10319;52.206;20.996;2023-12-07T13:58:03;28.57;;;12.07;;
20322;SDS011;10319;52.206;20.996;2023-12-07T14:00:28;25.37;;;10.53;;
20322;SDS011;10319;52.206;20.996;2023-12-07T14:02:54;29.13;;;12.03;;
20322;SDS011;10319;52.206;20.996;2023-12-07T14:05:19;28.10;;;11.33;;
20322;SDS011;10319;52.206;20.996;2023-12-07T14:07:44;29.83;;;12.67;;
20322;SDS011;10319;52.206;20.996;2023-12-07T14:10:10;27.17;;;10.53;;
20322;SDS011;10319;52.206;20.996;2023-12-07T14:12:36;23.70;;;9.33;;
20322;SDS011;10319;52.206;20.996;2023-12-07T14:15:02;20.73;;;8.03;;
20322;SDS011;10319;52.206;20.996;2023-12-07T14:17:28;22.33;;;8.20;;